Main page
METAR-TAF:

METAR-TAF

Airports :

Caracas, Venezuela

Simón Bolívar International Airport

latitude: 10-36N, longitude: 066-59W, elevation: 43 m

Current weather observation

The report was made 2 hours and 29 minutes ago, at 18:00 UTC
Wind 4 kt from the Northeast
Temperature 30°C
Humidity 70%
Pressure 1013 hPa
Few clouds at a height of 1600 ft

METAR: SVMI 181800Z 05004KT FEW016 30/24 Q1013

Time: 16:29 (20:29 UTC)

Forecast

The report was made 10 hours and 29 minutes ago, at 10:00 UTC
Forecast valid from 18 at 12 UTC to 19 at 12 UTC
Wind 10 kt from the East/Northeast
Visibility 10 km or more
Few clouds at a height of 1600 ft
Becoming
from 18 at 22 UTC to 19 at 02 UTC
Scattered clouds at a height of 2000 ft

TAF: SVMI 181000Z 1812/1912 07010KT 9999 FEW016 TX32/18Z TN24/09Z BECMG 1822/1902 SCT020

Weather observations and forecasts of more than 4000 airports (METAR and TAF reports).

The available stations are represented by yellow and red dots on the map.

Hover mouse over dot to see the name of the station.

Then click to see weather observations and forecasts.

To change the map : click on the green buttons with a black cross to zoom in, on the green button with a dash to zoom out, or on the green arrows for adjacent maps.


METAR-TAF: